Time;durP1;ratioP1;P1;durP2;ratioP2;P2;SDS_P1;SDS_P2;PMS_P1;PMS_P2;Temp;Humidity;BMP_temperature;BMP_pressure;BME280_temperature;BME280_humidity;BME280_pressure;Samples;Min_cycle;Max_cycle;Signal;HPM_P1;HPM_P2
2023/03/07 00:00:38;;;;;;;14.70;11.07;;;22.60;45.50;;;;;;4984675;28;20386;-63
2023/03/07 00:03:04;;;;;;;14.35;10.90;;;22.50;45.40;;;;;;4983646;28;20027;-64
2023/03/07 00:05:31;;;;;;;15.45;11.50;;;22.60;45.60;;;;;;4986340;28;20474;-64
2023/03/07 00:07:57;;;;;;;14.85;10.93;;;22.50;45.50;;;;;;4983175;28;20019;-64
2023/03/07 00:10:23;;;;;;;14.50;11.27;;;22.50;46.00;;;;;;4979091;28;20506;-64
2023/03/07 00:12:49;;;;;;;13.88;10.98;;;22.50;45.50;;;;;;4985276;28;20026;-63
2023/03/07 00:15:15;;;;;;;14.55;11.02;;;22.40;45.50;;;;;;4984479;28;20030;-63
2023/03/07 00:17:41;;;;;;;14.63;10.63;;;22.40;45.50;;;;;;4980342;28;20034;-63
2023/03/07 00:20:09;;;;;;;13.43;10.13;;;22.40;45.60;;;;;;4985955;28;20023;-63
2023/03/07 00:22:36;;;;;;;13.35;10.52;;;22.40;45.60;;;;;;4984089;28;20124;-63
2023/03/07 00:25:02;;;;;;;12.70;10.55;;;22.40;45.60;;;;;;4982078;28;20494;-64
2023/03/07 00:27:30;;;;;;;14.15;10.60;;;22.30;45.60;;;;;;4984138;28;20112;-63
2023/03/07 00:29:56;;;;;;;13.13;10.10;;;22.30;45.60;;;;;;4981467;28;20026;-63
2023/03/07 00:32:22;;;;;;;12.48;10.02;;;22.30;45.60;;;;;;4983460;28;20023;-63
2023/03/07 00:34:47;;;;;;;14.20;10.25;;;22.30;45.60;;;;;;4980604;28;20034;-63
2023/03/07 00:37:14;;;;;;;12.63;9.50;;;22.20;45.60;;;;;;4983795;28;20045;-64
2023/03/07 00:39:40;;;;;;;11.40;9.20;;;22.20;45.70;;;;;;4984459;28;20046;-63
2023/03/07 00:42:06;;;;;;;12.45;9.48;;;22.20;45.70;;;;;;4983242;28;20027;-64
2023/03/07 00:44:32;;;;;;;11.20;9.05;;;22.20;45.70;;;;;;4983921;28;20041;-63
2023/03/07 00:46:58;;;;;;;11.40;8.80;;;22.20;45.70;;;;;;4982095;28;20031;-63
2023/03/07 00:49:23;;;;;;;11.32;9.20;;;22.20;45.80;;;;;;4984001;28;20565;-64
2023/03/07 00:51:49;;;;;;;12.27;9.35;;;22.20;45.80;;;;;;4982782;28;20113;-63
2023/03/07 00:54:15;;;;;;;12.07;9.52;;;22.10;45.70;;;;;;4983389;28;20475;-63
2023/03/07 00:56:41;;;;;;;12.85;9.38;;;22.10;45.80;;;;;;4983698;28;20030;-64
2023/03/07 00:59:07;;;;;;;11.57;9.00;;;22.10;45.80;;;;;;4988440;28;20077;-64
2023/03/07 01:01:32;;;;;;;11.13;9.10;;;22.10;45.80;;;;;;4982529;28;20026;-64
2023/03/07 01:03:58;;;;;;;11.07;8.40;;;22.10;45.80;;;;;;4981088;28;20081;-64
2023/03/07 01:06:26;;;;;;;9.57;7.80;;;22.10;45.90;;;;;;4981074;28;20034;-63
2023/03/07 01:08:54;;;;;;;10.75;8.20;;;22.00;45.80;;;;;;4983900;28;20037;-64
2023/03/07 01:11:19;;;;;;;9.95;8.20;;;22.00;45.80;;;;;;4981240;28;20041;-63
2023/03/07 01:13:45;;;;;;;8.82;7.72;;;22.00;45.80;;;;;;4982191;28;20030;-63
2023/03/07 01:16:14;;;;;;;9.52;8.00;;;22.00;45.80;;;;;;4982707;28;20054;-63
2023/03/07 01:18:40;;;;;;;10.43;8.20;;;22.00;45.80;;;;;;4985828;28;20023;-64
2023/03/07 01:21:17;;;;;;;10.02;7.68;;;22.00;45.90;;;;;;4984739;28;20037;-64
2023/03/07 01:23:44;;;;;;;9.77;7.43;;;22.00;45.90;;;;;;4980272;28;20034;-64
2023/03/07 01:26:35;;;;;;;9.57;7.95;;;21.90;45.90;;;;;;4980261;28;20394;-65
2023/03/07 01:29:03;;;;;;;10.57;7.70;;;21.90;45.90;;;;;;4980813;28;20065;-64
2023/03/07 01:31:31;;;;;;;8.55;7.43;;;21.90;45.90;;;;;;4982358;28;20034;-64
2023/03/07 01:33:57;;;;;;;9.30;7.25;;;21.90;45.90;;;;;;4984676;28;20026;-64
2023/03/07 01:36:27;;;;;;;9.63;7.95;;;21.90;45.90;;;;;;4981939;28;20030;-63
2023/03/07 01:39:16;;;;;;;8.75;7.00;;;21.90;46.00;;;;;;4979746;28;20082;-64
2023/03/07 01:41:43;;;;;;;8.80;7.30;;;21.80;45.90;;;;;;4979978;28;20145;-64
2023/03/07 01:44:18;;;;;;;9.23;7.25;;;21.80;45.90;;;;;;4981860;28;20570;-64
2023/03/07 01:46:52;;;;;;;8.95;7.00;;;21.80;45.90;;;;;;4982329;28;20041;-64
2023/03/07 01:49:34;;;;;;;8.98;7.43;;;21.80;46.00;;;;;;4981920;28;20478;-64
2023/03/07 01:52:07;;;;;;;10.35;8.13;;;21.80;46.00;;;;;;4982325;28;20382;-63
2023/03/07 01:54:37;;;;;;;8.60;6.85;;;21.80;46.00;;;;;;4982464;28;20486;-63
2023/03/07 01:57:03;;;;;;;9.02;6.65;;;21.80;46.00;;;;;;4983542;28;20022;-63
2023/03/07 01:59:37;;;;;;;9.57;7.25;;;21.80;46.00;;;;;;4978828;28;20058;-64
2023/03/07 02:02:08;;;;;;;8.00;6.57;;;21.70;46.00;;;;;;4988630;28;20065;-63
2023/03/07 02:04:56;;;;;;;9.13;6.93;;;21.70;46.00;;;;;;4979807;28;20901;-64
2023/03/07 02:07:26;;;;;;;8.52;6.97;;;21.70;46.10;;;;;;4983141;28;20045;-63
2023/03/07 02:09:53;;;;;;;7.85;6.38;;;21.70;46.10;;;;;;4982472;28;20026;-64
2023/03/07 02:12:19;;;;;;;8.32;6.22;;;21.70;46.10;;;;;;4985055;28;20054;-63
2023/03/07 02:14:47;;;;;;;7.80;6.40;;;21.60;46.10;;;;;;4982124;28;20049;-63
2023/03/07 02:17:13;;;;;;;8.65;6.70;;;21.60;46.10;;;;;;4983192;28;20402;-64
2023/03/07 02:19:44;;;;;;;7.85;6.10;;;21.60;46.10;;;;;;4980674;28;20093;-64
2023/03/07 02:22:12;;;;;;;7.60;6.10;;;21.60;46.10;;;;;;4981598;28;20026;-65
2023/03/07 02:25:18;;;;;;;7.13;5.90;;;21.60;46.10;;;;;;4982219;28;20026;-64
2023/03/07 02:27:45;;;;;;;8.63;6.47;;;21.60;46.10;;;;;;4963123;28;20045;-64
2023/03/07 02:30:11;;;;;;;7.60;5.97;;;21.60;46.10;;;;;;4981659;28;20714;-64
2023/03/07 02:32:37;;;;;;;8.10;6.30;;;21.60;46.20;;;;;;4981858;28;20022;-62
2023/03/07 02:35:14;;;;;;;8.88;6.55;;;21.60;46.20;;;;;;4979202;28;20506;-63
2023/03/07 02:37:42;;;;;;;7.18;5.97;;;21.60;46.20;;;;;;4982842;28;20022;-64
2023/03/07 02:40:11;;;;;;;8.70;6.25;;;21.50;46.20;;;;;;4983167;28;20026;-64
2023/03/07 02:42:39;;;;;;;7.57;5.93;;;21.50;46.20;;;;;;4983818;28;20462;-64
2023/03/07 02:45:09;;;;;;;7.03;5.50;;;21.50;46.20;;;;;;4995494;28;20038;-63
2023/03/07 02:47:35;;;;;;;8.57;6.32;;;21.50;46.20;;;;;;4980740;28;20027;-63
2023/03/07 02:50:01;;;;;;;7.25;5.88;;;21.50;46.80;;;;;;4983212;28;20027;-64
2023/03/07 02:52:27;;;;;;;8.32;6.15;;;21.50;46.20;;;;;;4981478;28;20122;-63
2023/03/07 02:54:53;;;;;;;7.00;5.65;;;21.50;46.30;;;;;;4981930;28;20106;-63
2023/03/07 02:57:19;;;;;;;7.10;6.15;;;21.40;46.30;;;;;;4986005;28;20026;-64
2023/03/07 02:59:45;;;;;;;7.28;5.47;;;21.40;46.30;;;;;;4981697;28;20924;-64
2023/03/07 03:02:10;;;;;;;7.18;5.75;;;21.40;46.30;;;;;;4979139;28;20553;-64
2023/03/07 03:04:36;;;;;;;6.82;5.53;;;21.40;46.30;;;;;;4982379;28;20034;-65
2023/03/07 03:07:01;;;;;;;7.80;5.80;;;21.40;46.30;;;;;;4978793;28;20089;-64
2023/03/07 03:09:28;;;;;;;7.50;5.82;;;21.40;46.30;;;;;;4980838;28;20546;-64
2023/03/07 03:11:53;;;;;;;6.78;6.03;;;21.40;46.90;;;;;;4985016;28;20034;-64
2023/03/07 03:14:19;;;;;;;6.55;5.50;;;21.40;46.40;;;;;;4989598;28;20026;-63
2023/03/07 03:16:45;;;;;;;6.70;5.38;;;21.40;46.40;;;;;;4983779;28;20023;-64
2023/03/07 03:19:10;;;;;;;6.75;5.50;;;21.40;46.40;;;;;;4985681;28;20030;-64
2023/03/07 03:21:36;;;;;;;6.70;5.25;;;21.30;46.30;;;;;;4985579;28;20037;-63
2023/03/07 03:24:06;;;;;;;7.32;5.45;;;21.30;46.40;;;;;;4984712;28;20467;-64
2023/03/07 03:26:33;;;;;;;6.93;5.53;;;21.30;46.40;;;;;;4991318;28;20031;-63
2023/03/07 03:28:58;;;;;;;6.13;4.97;;;21.30;46.40;;;;;;4984150;28;20054;-63
2023/03/07 03:31:24;;;;;;;6.30;5.20;;;21.30;46.50;;;;;;4985428;28;20054;-63
2023/03/07 03:33:51;;;;;;;6.20;4.57;;;21.30;46.50;;;;;;4986381;28;20655;-64
2023/03/07 03:36:17;;;;;;;6.53;5.32;;;21.30;46.50;;;;;;4985993;28;20031;-65
2023/03/07 03:38:43;;;;;;;6.55;5.40;;;21.30;46.50;;;;;;4983132;28;20084;-64
2023/03/07 03:41:16;;;;;;;7.20;5.68;;;21.30;46.50;;;;;;4985649;28;20390;-63
2023/03/07 03:43:42;;;;;;;6.47;5.10;;;21.30;46.50;;;;;;4987545;28;20104;-62
2023/03/07 03:46:08;;;;;;;6.30;5.00;;;21.30;46.60;;;;;;4985994;28;20509;-62
2023/03/07 03:48:33;;;;;;;6.25;5.03;;;21.30;46.60;;;;;;4983960;28;20501;-64
2023/03/07 03:51:04;;;;;;;6.05;5.15;;;21.20;46.60;;;;;;4984506;28;20035;-63
2023/03/07 03:53:31;;;;;;;6.43;4.95;;;21.20;46.60;;;;;;4982668;28;20470;-63
2023/03/07 03:56:02;;;;;;;5.97;4.80;;;21.20;46.60;;;;;;4981763;28;20474;-64
2023/03/07 03:58:28;;;;;;;5.78;4.50;;;21.20;46.70;;;;;;4986739;28;20180;-64
2023/03/07 04:00:53;;;;;;;6.55;4.90;;;21.20;46.70;;;;;;4984706;28;20109;-64
2023/03/07 04:03:19;;;;;;;6.55;4.80;;;21.20;46.70;;;;;;4983428;28;20027;-64
2023/03/07 04:05:45;;;;;;;5.82;4.93;;;21.20;46.70;;;;;;4985551;28;20026;-64
2023/03/07 04:08:11;;;;;;;5.50;4.28;;;21.20;46.70;;;;;;4982717;28;20444;-63
2023/03/07 04:10:37;;;;;;;5.68;4.65;;;21.20;46.70;;;;;;4983800;28;20030;-64
2023/03/07 04:13:02;;;;;;;5.50;4.47;;;21.10;46.70;;;;;;4984121;28;20018;-64
2023/03/07 04:15:28;;;;;;;6.55;5.03;;;21.10;46.70;;;;;;4985194;28;20027;-64
2023/03/07 04:17:53;;;;;;;5.70;4.68;;;21.10;46.70;;;;;;4983116;28;20030;-64
2023/03/07 04:20:20;;;;;;;5.50;4.45;;;21.10;46.70;;;;;;4984345;28;20038;-64
2023/03/07 04:22:46;;;;;;;5.70;4.60;;;21.10;46.70;;;;;;4985061;28;20027;-65
2023/03/07 04:25:11;;;;;;;5.07;4.25;;;21.10;46.80;;;;;;4984133;28;20391;-64
2023/03/07 04:27:37;;;;;;;6.47;4.68;;;21.10;46.80;;;;;;4984710;28;20030;-64
2023/03/07 04:30:04;;;;;;;5.68;4.82;;;21.10;46.80;;;;;;4988293;28;20041;-63
2023/03/07 04:32:30;;;;;;;5.10;4.25;;;21.10;46.80;;;;;;4986647;28;20390;-64
2023/03/07 04:34:55;;;;;;;5.13;4.20;;;21.10;46.80;;;;;;4982703;28;20034;-64
2023/03/07 04:37:21;;;;;;;5.82;4.55;;;21.10;46.80;;;;;;4985752;28;20065;-63
2023/03/07 04:39:48;;;;;;;5.15;4.40;;;21.10;46.80;;;;;;4985683;28;20093;-64
2023/03/07 04:42:13;;;;;;;5.22;4.30;;;21.00;46.80;;;;;;4985529;28;20035;-64
2023/03/07 04:44:39;;;;;;;4.72;3.95;;;21.10;46.90;;;;;;4984024;28;20030;-64
2023/03/07 04:47:05;;;;;;;4.63;3.85;;;21.00;46.80;;;;;;4982977;28;20364;-64
2023/03/07 04:49:30;;;;;;;5.47;3.95;;;21.10;46.90;;;;;;4983036;28;20105;-64
2023/03/07 04:51:56;;;;;;;5.65;4.22;;;21.00;46.90;;;;;;4985199;28;20390;-64
2023/03/07 04:54:21;;;;;;;4.65;3.65;;;21.00;46.90;;;;;;4982560;28;20035;-63
2023/03/07 04:56:47;;;;;;;4.90;4.13;;;21.00;46.90;;;;;;4983701;28;20019;-63
2023/03/07 04:59:12;;;;;;;5.07;4.32;;;21.00;46.90;;;;;;4981937;28;20030;-62
2023/03/07 05:01:38;;;;;;;5.38;3.70;;;21.00;46.90;;;;;;4981511;28;20098;-63
2023/03/07 05:04:04;;;;;;;5.13;3.80;;;21.00;46.90;;;;;;4983477;28;20506;-63
2023/03/07 05:06:29;;;;;;;4.68;3.50;;;21.00;46.90;;;;;;4982550;28;20044;-62
2023/03/07 05:08:55;;;;;;;4.30;3.50;;;21.00;47.00;;;;;;4983624;28;20109;-63
2023/03/07 05:11:20;;;;;;;5.30;3.92;;;21.00;47.00;;;;;;4981998;28;20485;-63
2023/03/07 05:13:46;;;;;;;5.40;3.95;;;20.90;46.90;;;;;;4986844;28;20026;-62
2023/03/07 05:16:11;;;;;;;4.43;3.60;;;21.00;47.10;;;;;;4984940;28;20019;-62
2023/03/07 05:18:37;;;;;;;4.43;3.72;;;21.00;47.00;;;;;;4983691;28;20030;-63
2023/03/07 05:21:03;;;;;;;4.78;3.67;;;21.00;47.00;;;;;;4979433;28;20156;-62
2023/03/07 05:23:28;;;;;;;4.80;3.70;;;21.00;47.10;;;;;;4982384;28;20170;-62
2023/03/07 05:25:54;;;;;;;4.78;3.60;;;21.00;47.10;;;;;;4981882;28;20031;-62
2023/03/07 05:28:20;;;;;;;4.82;3.60;;;21.00;47.10;;;;;;4982584;28;20065;-62
2023/03/07 05:30:45;;;;;;;4.97;3.80;;;21.00;47.10;;;;;;4983142;28;20033;-63
2023/03/07 05:33:11;;;;;;;4.85;3.90;;;20.90;47.10;;;;;;4982779;28;20607;-62
2023/03/07 05:35:38;;;;;;;4.50;3.60;;;20.90;47.10;;;;;;4983817;28;20034;-62
2023/03/07 05:38:04;;;;;;;4.82;3.50;;;20.90;47.10;;;;;;4981024;28;20022;-63
2023/03/07 05:40:29;;;;;;;4.40;3.20;;;20.90;47.20;;;;;;4979136;28;20475;-63
2023/03/07 05:42:55;;;;;;;4.65;3.90;;;20.90;47.20;;;;;;4980598;28;20045;-63
2023/03/07 05:45:21;;;;;;;4.90;3.42;;;20.90;47.20;;;;;;4981698;28;21074;-63
2023/03/07 05:47:47;;;;;;;4.47;3.67;;;20.90;47.20;;;;;;4982749;28;20360;-63
2023/03/07 05:50:12;;;;;;;4.13;3.30;;;20.90;47.20;;;;;;4979895;28;20026;-63
2023/03/07 05:52:39;;;;;;;3.83;3.00;;;20.90;47.20;;;;;;4987994;28;20037;-62
2023/03/07 05:55:05;;;;;;;4.07;3.28;;;20.90;47.20;;;;;;4981894;28;20035;-62
2023/03/07 05:57:31;;;;;;;4.47;3.53;;;20.90;47.30;;;;;;4983441;28;20019;-63
2023/03/07 05:59:56;;;;;;;4.65;3.70;;;20.90;47.30;;;;;;4982494;28;20026;-63
2023/03/07 06:02:22;;;;;;;4.30;3.40;;;20.90;47.30;;;;;;4983358;28;20035;-62
2023/03/07 06:04:48;;;;;;;4.28;3.30;;;20.90;47.30;;;;;;4981239;28;20026;-63
2023/03/07 06:07:14;;;;;;;4.45;3.50;;;20.90;47.30;;;;;;4982681;28;20557;-63
2023/03/07 06:09:39;;;;;;;4.25;3.55;;;20.90;47.30;;;;;;4982070;28;20022;-64
2023/03/07 06:12:05;;;;;;;3.88;3.10;;;20.80;47.30;;;;;;4982857;28;20540;-63
2023/03/07 06:14:31;;;;;;;4.32;3.20;;;20.90;47.40;;;;;;4981536;28;20027;-63
2023/03/07 06:16:57;;;;;;;4.75;3.55;;;20.90;47.40;;;;;;4981670;28;20031;-63
2023/03/07 06:19:22;;;;;;;4.78;3.40;;;20.80;47.40;;;;;;4980464;28;20426;-63
2023/03/07 06:21:48;;;;;;;3.92;2.92;;;20.90;47.40;;;;;;4983126;28;20031;-63
2023/03/07 06:24:14;;;;;;;4.65;3.63;;;20.80;47.30;;;;;;4983343;28;20031;-63
2023/03/07 06:26:39;;;;;;;4.50;3.13;;;20.90;47.40;;;;;;4982971;28;20486;-63
2023/03/07 06:29:05;;;;;;;4.47;3.10;;;20.90;47.40;;;;;;4982561;28;20119;-63
2023/03/07 06:31:30;;;;;;;4.93;3.30;;;20.80;47.30;;;;;;4978583;28;20027;-63
2023/03/07 06:33:56;;;;;;;4.88;3.22;;;20.80;47.40;;;;;;4982538;28;20078;-63
2023/03/07 06:36:22;;;;;;;4.50;3.00;;;20.80;47.60;;;;;;4982859;28;20584;-63
2023/03/07 06:38:48;;;;;;;4.57;3.38;;;20.80;47.70;;;;;;4981546;28;20034;-63
2023/03/07 06:41:13;;;;;;;4.90;3.55;;;20.80;48.10;;;;;;4982366;28;20030;-64
2023/03/07 06:43:39;;;;;;;5.90;3.75;;;20.90;48.40;;;;;;4981067;28;20517;-64
2023/03/07 06:46:05;;;;;;;5.47;4.13;;;21.00;49.00;;;;;;4984012;28;20141;-62
2023/03/07 06:48:32;;;;;;;5.03;3.53;;;21.10;48.40;;;;;;4984685;28;20403;-62
2023/03/07 06:50:58;;;;;;;5.15;3.30;;;21.20;48.30;;;;;;4987014;28;20398;-63
2023/03/07 06:53:24;;;;;;;5.22;3.40;;;21.30;48.10;;;;;;4984549;28;20049;-63
2023/03/07 06:55:51;;;;;;;4.78;3.53;;;21.40;47.80;;;;;;4990329;28;20019;-62
2023/03/07 06:58:17;;;;;;;4.75;3.58;;;21.50;47.60;;;;;;4983333;28;20119;-63
2023/03/07 07:00:43;;;;;;;5.43;3.40;;;21.70;47.40;;;;;;5000997;28;20475;-63
2023/03/07 07:03:12;;;;;;;6.60;3.90;;;21.70;47.30;;;;;;4986567;28;20034;-63
2023/03/07 07:05:38;;;;;;;4.50;3.28;;;21.80;47.10;;;;;;4985300;28;20055;-63
2023/03/07 07:08:04;;;;;;;4.30;3.50;;;21.90;47.00;;;;;;4985664;28;20042;-63
2023/03/07 07:10:29;;;;;;;5.30;3.85;;;22.00;46.70;;;;;;4984308;28;20075;-62
2023/03/07 07:12:55;;;;;;;4.70;3.60;;;22.10;46.30;;;;;;4983815;28;20034;-63
2023/03/07 07:15:22;;;;;;;5.57;4.15;;;22.20;46.30;;;;;;4991308;28;20493;-63
2023/03/07 07:17:49;;;;;;;5.55;3.50;;;22.20;46.40;;;;;;4984240;28;20030;-64
2023/03/07 07:20:15;;;;;;;5.78;3.67;;;22.30;46.60;;;;;;4985456;28;20437;-63
2023/03/07 07:22:41;;;;;;;7.28;3.50;;;22.30;46.00;;;;;;5001345;28;20019;-63
2023/03/07 07:25:07;;;;;;;5.28;3.65;;;22.30;45.80;;;;;;4983269;28;20038;-64
2023/03/07 07:27:33;;;;;;;4.18;3.38;;;22.30;45.80;;;;;;4984906;28;20037;-63
2023/03/07 07:29:58;;;;;;;4.47;3.30;;;22.40;45.80;;;;;;4981924;28;20038;-63
2023/03/07 07:32:24;;;;;;;4.40;3.33;;;22.40;45.70;;;;;;4985701;28;20104;-64
2023/03/07 07:34:50;;;;;;;4.22;3.20;;;22.40;45.50;;;;;;4986914;28;20497;-63
2023/03/07 07:37:15;;;;;;;5.10;3.40;;;22.40;45.40;;;;;;4987735;28;20498;-63
2023/03/07 07:39:42;;;;;;;4.05;3.13;;;22.40;45.40;;;;;;4981330;28;20025;-63
2023/03/07 07:42:09;;;;;;;3.70;3.15;;;22.50;45.30;;;;;;4986633;28;20118;-63
2023/03/07 07:44:34;;;;;;;4.30;3.53;;;22.50;45.40;;;;;;4984575;28;20038;-63
2023/03/07 07:47:00;;;;;;;4.28;3.10;;;22.50;45.30;;;;;;4985275;28;20441;-62
2023/03/07 07:49:26;;;;;;;4.00;3.00;;;22.50;45.20;;;;;;4984530;28;20089;-63
2023/03/07 07:51:52;;;;;;;4.32;3.15;;;22.50;45.10;;;;;;4984605;28;20142;-63
2023/03/07 07:54:17;;;;;;;3.53;2.80;;;22.60;45.10;;;;;;4985334;28;20494;-63
2023/03/07 07:56:43;;;;;;;3.78;2.97;;;22.60;45.60;;;;;;4984238;28;20030;-63
2023/03/07 07:59:09;;;;;;;4.00;3.10;;;22.60;44.90;;;;;;4983113;28;20121;-63
2023/03/07 08:01:34;;;;;;;3.97;3.00;;;22.60;44.90;;;;;;4985369;28;20829;-63
2023/03/07 08:04:00;;;;;;;3.80;2.75;;;22.60;44.90;;;;;;4982356;28;20042;-63
2023/03/07 08:06:27;;;;;;;4.13;3.17;;;22.60;44.80;;;;;;4981243;28;20033;-63
2023/03/07 08:08:53;;;;;;;4.75;3.17;;;22.70;44.90;;;;;;4983404;28;20042;-63
2023/03/07 08:11:19;;;;;;;4.70;3.28;;;22.70;44.90;;;;;;4984812;28;20419;-63
2023/03/07 08:13:45;;;;;;;3.63;3.00;;;22.70;44.80;;;;;;4981118;28;20026;-63
2023/03/07 08:16:17;;;;;;;4.07;3.05;;;22.70;44.70;;;;;;4984386;28;20033;-62
2023/03/07 08:18:51;;;;;;;4.93;2.80;;;22.70;44.80;;;;;;4984321;28;20479;-64
2023/03/07 08:21:17;;;;;;;3.80;2.92;;;22.70;45.20;;;;;;4985877;28;20102;-63
2023/03/07 08:23:42;;;;;;;4.00;2.97;;;22.70;44.70;;;;;;4982060;28;20106;-63
2023/03/07 08:26:09;;;;;;;3.83;2.55;;;22.70;44.70;;;;;;4988255;28;20053;-63
2023/03/07 08:28:36;;;;;;;3.70;2.80;;;22.70;44.60;;;;;;4984700;28;20033;-64
2023/03/07 08:31:13;;;;;;;3.30;2.30;;;22.80;45.20;;;;;;4985063;28;20023;-64
2023/03/07 08:33:39;;;;;;;4.30;2.95;;;22.70;44.70;;;;;;4982884;28;20101;-63
2023/03/07 08:36:05;;;;;;;4.03;3.10;;;22.70;44.70;;;;;;4982374;28;20518;-63
2023/03/07 08:38:31;;;;;;;3.95;3.05;;;22.70;44.50;;;;;;4982014;28;20034;-63
2023/03/07 08:41:02;;;;;;;4.85;2.90;;;22.70;44.30;;;;;;4983673;28;20030;-63
2023/03/07 08:43:30;;;;;;;4.10;2.72;;;22.70;44.30;;;;;;4981627;28;20119;-63
2023/03/07 08:45:56;;;;;;;3.97;2.50;;;22.70;44.20;;;;;;4985533;28;20046;-63
2023/03/07 08:48:22;;;;;;;4.18;2.40;;;22.70;44.20;;;;;;4989048;28;20133;-64
2023/03/07 08:50:48;;;;;;;2.92;2.05;;;22.70;44.40;;;;;;4986076;28;20082;-64
2023/03/07 08:53:14;;;;;;;2.95;2.08;;;22.70;44.50;;;;;;4982900;28;20506;-64
2023/03/07 08:55:40;;;;;;;2.97;2.20;;;22.60;45.10;;;;;;4987593;28;20057;-63
2023/03/07 08:58:06;;;;;;;2.50;1.90;;;22.70;44.80;;;;;;4996748;28;20486;-62
2023/03/07 09:00:32;;;;;;;3.10;2.00;;;22.70;44.90;;;;;;4989597;28;20478;-63
2023/03/07 09:02:57;;;;;;;3.08;2.03;;;22.70;45.00;;;;;;4986153;28;20113;-63
2023/03/07 09:05:24;;;;;;;3.00;1.98;;;22.70;45.10;;;;;;4989370;28;20031;-62
2023/03/07 09:07:49;;;;;;;3.10;1.92;;;22.70;45.10;;;;;;4980469;28;20381;-64
2023/03/07 09:10:18;;;;;;;3.10;1.95;;;22.70;45.30;;;;;;4985233;28;20113;-64
2023/03/07 09:12:43;;;;;;;2.53;1.80;;;22.70;45.30;;;;;;4981654;28;20088;-64
2023/03/07 09:15:09;;;;;;;2.72;2.05;;;22.70;45.30;;;;;;4981132;28;20544;-64
2023/03/07 09:17:35;;;;;;;3.33;1.95;;;22.70;45.30;;;;;;4981604;28;20027;-64
2023/03/07 09:20:01;;;;;;;2.50;1.80;;;22.70;45.30;;;;;;4983330;28;20034;-63
2023/03/07 09:22:26;;;;;;;2.65;1.75;;;22.70;45.40;;;;;;4983677;28;20027;-64
2023/03/07 09:24:52;;;;;;;2.20;1.70;;;22.70;45.40;;;;;;4997417;28;20081;-63
2023/03/07 09:27:18;;;;;;;2.22;1.60;;;22.80;45.40;;;;;;4982486;28;20035;-63
2023/03/07 09:29:44;;;;;;;3.53;1.55;;;22.80;46.00;;;;;;4983535;28;20518;-63
2023/03/07 09:32:09;;;;;;;2.53;1.75;;;22.80;45.60;;;;;;4981985;28;20034;-64
2023/03/07 09:34:35;;;;;;;2.20;1.70;;;22.80;45.50;;;;;;4985804;28;20042;-64
2023/03/07 09:37:01;;;;;;;2.47;1.75;;;22.80;45.50;;;;;;4982901;28;20406;-64
2023/03/07 09:39:26;;;;;;;2.95;2.03;;;22.80;45.60;;;;;;4988042;28;20064;-63
2023/03/07 09:42:17;;;;;;;2.53;1.75;;;22.90;45.50;;;;;;4984606;28;20023;-64
2023/03/07 09:44:59;;;;;;;3.13;1.90;;;22.90;45.40;;;;;;4982805;28;20050;-64
2023/03/07 09:47:57;;;;;;;2.40;1.60;;;22.90;45.50;;;;;;4984600;28;20050;-63
2023/03/07 09:50:53;;;;;;;2.78;1.60;;;22.90;45.40;;;;;;4984742;28;20058;-64
2023/03/07 09:53:37;;;;;;;2.58;1.85;;;22.90;45.30;;;;;;4985427;28;20035;-64
2023/03/07 09:56:10;;;;;;;2.15;1.55;;;22.90;45.40;;;;;;4980748;28;20049;-63
2023/03/07 09:58:39;;;;;;;2.20;1.60;;;22.90;45.40;;;;;;4996136;28;20025;-63
2023/03/07 10:01:07;;;;;;;2.35;1.60;;;22.90;45.50;;;;;;4981020;28;20430;-63
2023/03/07 10:04:03;;;;;;;2.72;1.83;;;23.00;45.50;;;;;;4983403;28;20084;-63
2023/03/07 10:06:40;;;;;;;2.10;1.45;;;23.00;45.50;;;;;;4981406;28;20025;-63
2023/03/07 10:09:12;;;;;;;2.10;1.52;;;23.00;45.30;;;;;;4980921;28;20146;-62
2023/03/07 10:11:58;;;;;;;2.78;1.67;;;23.00;45.30;;;;;;4980302;28;20019;-63
2023/03/07 10:14:45;;;;;;;2.20;1.60;;;23.00;45.20;;;;;;4989343;28;20724;-63
2023/03/07 10:17:47;;;;;;;2.30;1.60;;;23.00;45.20;;;;;;4983759;28;20482;-64
2023/03/07 10:20:32;;;;;;;2.15;1.50;;;23.00;45.20;;;;;;4987073;28;20106;-63
2023/03/07 10:23:35;;;;;;;2.22;1.42;;;23.10;45.80;;;;;;4986809;28;20364;-63
2023/03/07 10:26:20;;;;;;;2.47;1.60;;;23.10;45.30;;;;;;4986866;28;20042;-62
2023/03/07 10:28:47;;;;;;;2.33;1.55;;;23.10;45.30;;;;;;4986658;28;20035;-62
2023/03/07 10:31:28;;;;;;;2.65;1.67;;;23.10;45.30;;;;;;4986691;28;20102;-63
2023/03/07 10:33:54;;;;;;;2.00;1.38;;;23.20;45.50;;;;;;4982612;28;20425;-63
2023/03/07 10:36:48;;;;;;;2.08;1.50;;;23.10;45.20;;;;;;4984864;28;20019;-64
2023/03/07 10:39:24;;;;;;;2.03;1.48;;;23.20;44.90;;;;;;4985013;28;20023;-63
2023/03/07 10:41:49;;;;;;;1.92;1.50;;;23.20;44.80;;;;;;4986981;28;20469;-63
2023/03/07 10:44:18;;;;;;;2.70;1.63;;;23.20;45.00;;;;;;4986192;28;20030;-63
2023/03/07 10:46:45;;;;;;;1.92;1.38;;;23.20;45.10;;;;;;4986824;28;20379;-63
2023/03/07 10:49:22;;;;;;;2.28;1.60;;;23.20;45.00;;;;;;4984575;28;20496;-63
2023/03/07 10:51:54;;;;;;;1.80;1.30;;;23.20;45.30;;;;;;4985992;28;20479;-63
2023/03/07 10:54:22;;;;;;;1.80;1.40;;;23.20;45.80;;;;;;4987124;28;20026;-63
2023/03/07 10:57:07;;;;;;;2.20;1.50;;;23.30;45.50;;;;;;4986165;28;20053;-62
2023/03/07 10:59:33;;;;;;;2.05;1.40;;;23.30;46.00;;;;;;5002837;28;20097;-64
2023/03/07 11:02:00;;;;;;;2.83;2.03;;;23.30;46.30;;;;;;4980451;28;20034;-63
2023/03/07 11:04:29;;;;;;;2.83;1.95;;;23.40;44.80;;;;;;4983739;28;20030;-63
2023/03/07 11:06:59;;;;;;;2.88;1.80;;;23.30;44.30;;;;;;4982651;28;20466;-62
2023/03/07 11:09:26;;;;;;;2.35;1.50;;;23.40;44.20;;;;;;4984796;28;20034;-63
2023/03/07 11:11:57;;;;;;;2.20;1.45;;;23.40;44.30;;;;;;4983578;28;20149;-63
2023/03/07 11:14:27;;;;;;;1.95;1.40;;;23.30;44.40;;;;;;4986744;28;20508;-63
2023/03/07 11:16:59;;;;;;;2.92;1.50;;;23.30;44.50;;;;;;4985730;28;20022;-64
2023/03/07 11:19:38;;;;;;;1.90;1.50;;;23.30;44.50;;;;;;4986062;28;20049;-63
2023/03/07 11:22:20;;;;;;;2.00;1.45;;;23.30;45.00;;;;;;4983112;28;20470;-64
2023/03/07 11:24:50;;;;;;;1.83;1.30;;;23.30;44.40;;;;;;4987742;28;20038;-63
2023/03/07 11:27:22;;;;;;;2.10;1.48;;;23.30;44.60;;;;;;4984033;28;20026;-63
2023/03/07 11:30:16;;;;;;;1.88;1.38;;;23.30;44.60;;;;;;4984359;28;20125;-63
2023/03/07 11:33:22;;;;;;;1.88;1.20;;;23.30;44.50;;;;;;4984103;28;20180;-64
2023/03/07 11:36:01;;;;;;;1.92;1.30;;;23.30;44.50;;;;;;4978920;28;20046;-63
2023/03/07 11:38:55;;;;;;;2.17;1.40;;;23.30;44.60;;;;;;4984889;28;20030;-64
2023/03/07 11:41:31;;;;;;;2.05;1.30;;;23.30;44.50;;;;;;4984489;28;20595;-64
2023/03/07 11:44:29;;;;;;;2.35;1.50;;;23.30;44.60;;;;;;4984907;28;20057;-64
2023/03/07 11:47:09;;;;;;;1.90;1.40;;;23.30;44.60;;;;;;4987793;28;20410;-64
2023/03/07 11:50:12;;;;;;;2.10;1.40;;;23.30;44.50;;;;;;4985521;28;20471;-63
2023/03/07 11:52:46;;;;;;;1.73;1.33;;;23.40;44.60;;;;;;4984642;28;20022;-64
2023/03/07 11:55:37;;;;;;;1.60;1.20;;;23.40;44.70;;;;;;4985636;28;20022;-65
2023/03/07 11:58:03;;;;;;;1.60;1.27;;;23.40;44.70;;;;;;4986532;28;20096;-62
2023/03/07 12:00:59;;;;;;;2.35;1.50;;;23.30;45.00;;;;;;4984379;28;20058;-63
2023/03/07 12:03:46;;;;;;;1.90;1.35;;;23.40;44.80;;;;;;4985616;28;20398;-62
2023/03/07 12:06:48;;;;;;;1.60;1.25;;;23.40;44.70;;;;;;4982867;28;20408;-63
2023/03/07 12:09:42;;;;;;;1.88;1.30;;;23.40;44.70;;;;;;4984193;28;20442;-63
2023/03/07 12:12:16;;;;;;;1.38;1.15;;;23.50;44.70;;;;;;4982708;28;20110;-62
2023/03/07 12:14:56;;;;;;;2.10;1.42;;;23.40;44.70;;;;;;4983519;28;20105;-63
2023/03/07 12:17:24;;;;;;;;;;;23.50;44.70;;;;;;4982490;28;20042;-63
2023/03/07 12:20:14;;;;;;;1.70;1.23;;;23.50;44.60;;;;;;4989313;28;19906;-62
2023/03/07 12:23:01;;;;;;;1.88;1.38;;;23.50;44.70;;;;;;4987934;28;20375;-63
2023/03/07 12:25:41;;;;;;;2.47;1.88;;;23.50;44.70;;;;;;4984000;28;20039;-63
2023/03/07 12:28:18;;;;;;;;;;;23.50;44.30;;;;;;4983107;28;20040;-63
2023/03/07 12:31:02;;;;;;;2.13;1.60;;;23.50;44.10;;;;;;4983659;28;20380;-63
2023/03/07 12:33:39;;;;;;;2.83;1.80;;;23.60;44.00;;;;;;4984101;28;20512;-62
2023/03/07 12:36:26;;;;;;;2.40;1.60;;;23.50;43.90;;;;;;4983164;28;20042;-62
2023/03/07 12:38:55;;;;;;;2.40;1.60;;;23.50;43.90;;;;;;4983876;28;20026;-63
2023/03/07 12:41:35;;;;;;;2.38;1.48;;;23.50;43.90;;;;;;4983185;28;20026;-63
2023/03/07 12:44:04;;;;;;;;;;;23.50;44.00;;;;;;4983865;28;20203;-63
2023/03/07 12:46:43;;;;;;;2.10;1.40;;;23.50;44.00;;;;;;4983087;28;20307;-62
2023/03/07 12:49:44;;;;;;;1.60;1.20;;;23.50;44.10;;;;;;4984249;28;20038;-65
2023/03/07 12:52:21;;;;;;;2.00;1.42;;;23.50;44.10;;;;;;4985031;28;20039;-65
2023/03/07 12:55:00;;;;;;;2.25;1.50;;;23.50;44.10;;;;;;4983090;28;20023;-64
2023/03/07 12:57:42;;;;;;;1.95;1.40;;;23.50;44.20;;;;;;4981842;28;20026;-65
2023/03/07 13:00:11;;;;;;;1.88;1.38;;;23.50;44.10;;;;;;4982873;28;20049;-62